sensor_id;sensor_type;location;lat;lon;timestamp;P1;durP1;ratioP1;P2;durP2;ratioP2
11054;SDS011;5580;50.106;8.702;2023-02-28T00:00:24;5.73;;;4.43;;
11054;SDS011;5580;50.106;8.702;2023-02-28T00:02:51;6.23;;;4.60;;
11054;SDS011;5580;50.106;8.702;2023-02-28T00:05:18;7.43;;;4.80;;
11054;SDS011;5580;50.106;8.702;2023-02-28T00:07:45;9.37;;;5.00;;
11054;SDS011;5580;50.106;8.702;2023-02-28T00:10:13;8.53;;;5.30;;
11054;SDS011;5580;50.106;8.702;2023-02-28T00:12:40;6.83;;;4.67;;
11054;SDS011;5580;50.106;8.702;2023-02-28T00:15:07;8.20;;;5.03;;
11054;SDS011;5580;50.106;8.702;2023-02-28T00:17:35;7.73;;;5.13;;
11054;SDS011;5580;50.106;8.702;2023-02-28T00:20:01;5.93;;;4.80;;
11054;SDS011;5580;50.106;8.702;2023-02-28T00:22:29;9.20;;;5.37;;
11054;SDS011;5580;50.106;8.702;2023-02-28T00:24:55;6.97;;;5.27;;
11054;SDS011;5580;50.106;8.702;2023-02-28T00:27:21;9.30;;;5.33;;
11054;SDS011;5580;50.106;8.702;2023-02-28T00:29:46;8.30;;;5.60;;
11054;SDS011;5580;50.106;8.702;2023-02-28T00:32:12;8.93;;;5.60;;
11054;SDS011;5580;50.106;8.702;2023-02-28T00:34:38;8.30;;;5.83;;
11054;SDS011;5580;50.106;8.702;2023-02-28T00:37:05;9.70;;;5.80;;
11054;SDS011;5580;50.106;8.702;2023-02-28T00:39:33;9.40;;;5.67;;
11054;SDS011;5580;50.106;8.702;2023-02-28T00:41:59;7.97;;;5.43;;
11054;SDS011;5580;50.106;8.702;2023-02-28T00:44:25;10.20;;;6.00;;
11054;SDS011;5580;50.106;8.702;2023-02-28T00:46:51;8.80;;;6.00;;
11054;SDS011;5580;50.106;8.702;2023-02-28T00:49:18;10.03;;;6.03;;
11054;SDS011;5580;50.106;8.702;2023-02-28T00:51:45;9.43;;;5.70;;
11054;SDS011;5580;50.106;8.702;2023-02-28T00:54:11;9.90;;;5.90;;
11054;SDS011;5580;50.106;8.702;2023-02-28T00:56:36;9.77;;;6.17;;
11054;SDS011;5580;50.106;8.702;2023-02-28T00:59:02;9.30;;;6.27;;
11054;SDS011;5580;50.106;8.702;2023-02-28T01:01:28;9.97;;;6.27;;
11054;SDS011;5580;50.106;8.702;2023-02-28T01:03:53;9.50;;;6.30;;
11054;SDS011;5580;50.106;8.702;2023-02-28T01:06:19;11.80;;;6.63;;
11054;SDS011;5580;50.106;8.702;2023-02-28T01:08:44;10.03;;;6.40;;
11054;SDS011;5580;50.106;8.702;2023-02-28T01:11:11;11.70;;;6.70;;
11054;SDS011;5580;50.106;8.702;2023-02-28T01:13:37;11.30;;;6.47;;
11054;SDS011;5580;50.106;8.702;2023-02-28T01:16:03;11.83;;;6.37;;
11054;SDS011;5580;50.106;8.702;2023-02-28T01:18:29;9.37;;;6.40;;
11054;SDS011;5580;50.106;8.702;2023-02-28T01:20:55;12.20;;;6.90;;
11054;SDS011;5580;50.106;8.702;2023-02-28T01:23:21;13.23;;;6.90;;
11054;SDS011;5580;50.106;8.702;2023-02-28T01:25:48;10.70;;;6.27;;
11054;SDS011;5580;50.106;8.702;2023-02-28T01:28:17;9.60;;;6.80;;
11054;SDS011;5580;50.106;8.702;2023-02-28T01:30:46;10.83;;;6.67;;
11054;SDS011;5580;50.106;8.702;2023-02-28T01:33:13;10.43;;;7.00;;
11054;SDS011;5580;50.106;8.702;2023-02-28T01:35:38;9.90;;;6.50;;
11054;SDS011;5580;50.106;8.702;2023-02-28T01:38:04;11.37;;;6.87;;
11054;SDS011;5580;50.106;8.702;2023-02-28T01:40:30;10.53;;;6.80;;
11054;SDS011;5580;50.106;8.702;2023-02-28T01:42:55;11.60;;;6.80;;
11054;SDS011;5580;50.106;8.702;2023-02-28T01:45:22;11.10;;;7.00;;
11054;SDS011;5580;50.106;8.702;2023-02-28T01:48:00;12.83;;;7.03;;
11054;SDS011;5580;50.106;8.702;2023-02-28T01:50:31;11.03;;;7.23;;
11054;SDS011;5580;50.106;8.702;2023-02-28T01:53:04;10.90;;;6.70;;
11054;SDS011;5580;50.106;8.702;2023-02-28T01:55:34;11.83;;;7.13;;
11054;SDS011;5580;50.106;8.702;2023-02-28T01:58:02;11.10;;;6.80;;
11054;SDS011;5580;50.106;8.702;2023-02-28T02:00:30;11.73;;;7.10;;
11054;SDS011;5580;50.106;8.702;2023-02-28T02:02:58;11.67;;;6.93;;
11054;SDS011;5580;50.106;8.702;2023-02-28T02:05:29;10.67;;;6.83;;
11054;SDS011;5580;50.106;8.702;2023-02-28T02:08:03;10.80;;;7.10;;
11054;SDS011;5580;50.106;8.702;2023-02-28T02:29:53;10.43;;;6.67;;
11054;SDS011;5580;50.106;8.702;2023-02-28T02:32:57;11.37;;;6.70;;
11054;SDS011;5580;50.106;8.702;2023-02-28T02:38:34;10.20;;;6.73;;
11054;SDS011;5580;50.106;8.702;2023-02-28T02:41:35;12.67;;;6.43;;
11054;SDS011;5580;50.106;8.702;2023-02-28T02:44:25;10.90;;;6.50;;
11054;SDS011;5580;50.106;8.702;2023-02-28T02:46:58;10.57;;;6.40;;
11054;SDS011;5580;50.106;8.702;2023-02-28T02:49:30;9.90;;;6.37;;
11054;SDS011;5580;50.106;8.702;2023-02-28T02:51:58;10.57;;;6.47;;
11054;SDS011;5580;50.106;8.702;2023-02-28T02:54:32;10.83;;;5.97;;
11054;SDS011;5580;50.106;8.702;2023-02-28T02:57:11;10.97;;;6.40;;
11054;SDS011;5580;50.106;8.702;2023-02-28T02:59:50;10.90;;;6.23;;
11054;SDS011;5580;50.106;8.702;2023-02-28T03:02:18;10.23;;;6.37;;
11054;SDS011;5580;50.106;8.702;2023-02-28T03:04:48;8.97;;;5.97;;
11054;SDS011;5580;50.106;8.702;2023-02-28T03:07:25;9.93;;;6.23;;
11054;SDS011;5580;50.106;8.702;2023-02-28T03:09:52;12.20;;;6.63;;
11054;SDS011;5580;50.106;8.702;2023-02-28T03:12:19;11.50;;;6.60;;
11054;SDS011;5580;50.106;8.702;2023-02-28T03:23:50;10.70;;;6.20;;
11054;SDS011;5580;50.106;8.702;2023-02-28T03:26:29;9.40;;;6.07;;
11054;SDS011;5580;50.106;8.702;2023-02-28T03:29:03;9.40;;;5.87;;
11054;SDS011;5580;50.106;8.702;2023-02-28T03:31:41;9.17;;;5.87;;
11054;SDS011;5580;50.106;8.702;2023-02-28T03:34:28;9.87;;;6.07;;
11054;SDS011;5580;50.106;8.702;2023-02-28T03:37:01;9.47;;;5.97;;
11054;SDS011;5580;50.106;8.702;2023-02-28T03:39:39;10.20;;;6.53;;
11054;SDS011;5580;50.106;8.702;2023-02-28T03:42:14;10.10;;;6.00;;
11054;SDS011;5580;50.106;8.702;2023-02-28T03:44:45;9.57;;;6.00;;
11054;SDS011;5580;50.106;8.702;2023-02-28T03:47:23;8.03;;;5.63;;
11054;SDS011;5580;50.106;8.702;2023-02-28T03:49:54;8.73;;;5.73;;
11054;SDS011;5580;50.106;8.702;2023-02-28T03:52:21;10.57;;;5.97;;
11054;SDS011;5580;50.106;8.702;2023-02-28T03:54:51;11.63;;;6.07;;
11054;SDS011;5580;50.106;8.702;2023-02-28T03:57:22;9.03;;;5.70;;
11054;SDS011;5580;50.106;8.702;2023-02-28T03:59:56;8.57;;;5.80;;
11054;SDS011;5580;50.106;8.702;2023-02-28T04:02:29;9.50;;;5.77;;
11054;SDS011;5580;50.106;8.702;2023-02-28T04:04:55;9.27;;;5.83;;
11054;SDS011;5580;50.106;8.702;2023-02-28T04:07:20;7.40;;;5.30;;
11054;SDS011;5580;50.106;8.702;2023-02-28T04:09:46;8.33;;;5.43;;
11054;SDS011;5580;50.106;8.702;2023-02-28T04:12:12;10.80;;;5.93;;
11054;SDS011;5580;50.106;8.702;2023-02-28T04:14:37;8.70;;;5.60;;
11054;SDS011;5580;50.106;8.702;2023-02-28T04:17:03;9.33;;;5.83;;
11054;SDS011;5580;50.106;8.702;2023-02-28T04:19:28;7.97;;;5.37;;
11054;SDS011;5580;50.106;8.702;2023-02-28T04:21:54;8.70;;;5.50;;
11054;SDS011;5580;50.106;8.702;2023-02-28T04:24:21;6.70;;;5.10;;
11054;SDS011;5580;50.106;8.702;2023-02-28T04:26:50;8.30;;;5.77;;
11054;SDS011;5580;50.106;8.702;2023-02-28T04:29:18;8.73;;;5.80;;
11054;SDS011;5580;50.106;8.702;2023-02-28T04:31:45;9.97;;;5.70;;
11054;SDS011;5580;50.106;8.702;2023-02-28T04:34:11;10.43;;;5.53;;
11054;SDS011;5580;50.106;8.702;2023-02-28T04:36:36;9.47;;;6.10;;
11054;SDS011;5580;50.106;8.702;2023-02-28T04:39:02;9.13;;;5.57;;
11054;SDS011;5580;50.106;8.702;2023-02-28T04:41:28;7.30;;;5.30;;
11054;SDS011;5580;50.106;8.702;2023-02-28T04:43:54;9.90;;;5.83;;
11054;SDS011;5580;50.106;8.702;2023-02-28T04:46:20;9.70;;;5.47;;
11054;SDS011;5580;50.106;8.702;2023-02-28T04:48:47;7.73;;;5.77;;
11054;SDS011;5580;50.106;8.702;2023-02-28T04:51:13;9.03;;;5.70;;
11054;SDS011;5580;50.106;8.702;2023-02-28T04:53:40;8.07;;;5.30;;
11054;SDS011;5580;50.106;8.702;2023-02-28T04:56:08;8.30;;;5.60;;
11054;SDS011;5580;50.106;8.702;2023-02-28T04:58:36;8.80;;;5.60;;
11054;SDS011;5580;50.106;8.702;2023-02-28T05:01:05;8.70;;;5.73;;
11054;SDS011;5580;50.106;8.702;2023-02-28T05:03:40;8.90;;;5.43;;
11054;SDS011;5580;50.106;8.702;2023-02-28T05:06:07;8.47;;;5.30;;
11054;SDS011;5580;50.106;8.702;2023-02-28T05:08:33;7.83;;;5.37;;
11054;SDS011;5580;50.106;8.702;2023-02-28T05:10:59;10.00;;;5.53;;
11054;SDS011;5580;50.106;8.702;2023-02-28T05:13:29;8.10;;;5.10;;
11054;SDS011;5580;50.106;8.702;2023-02-28T05:15:54;6.93;;;5.30;;
11054;SDS011;5580;50.106;8.702;2023-02-28T05:18:20;9.23;;;5.73;;
11054;SDS011;5580;50.106;8.702;2023-02-28T05:20:46;8.67;;;5.40;;
11054;SDS011;5580;50.106;8.702;2023-02-28T05:23:12;9.00;;;5.40;;
11054;SDS011;5580;50.106;8.702;2023-02-28T05:25:39;9.33;;;5.50;;
11054;SDS011;5580;50.106;8.702;2023-02-28T05:28:05;8.93;;;5.50;;
11054;SDS011;5580;50.106;8.702;2023-02-28T05:30:31;9.03;;;5.33;;
11054;SDS011;5580;50.106;8.702;2023-02-28T05:32:57;7.50;;;5.13;;
11054;SDS011;5580;50.106;8.702;2023-02-28T05:35:23;8.30;;;5.10;;
11054;SDS011;5580;50.106;8.702;2023-02-28T05:37:49;8.87;;;5.53;;
11054;SDS011;5580;50.106;8.702;2023-02-28T05:40:15;9.97;;;5.50;;
11054;SDS011;5580;50.106;8.702;2023-02-28T05:42:42;8.13;;;5.20;;
11054;SDS011;5580;50.106;8.702;2023-02-28T05:45:08;7.60;;;5.43;;
11054;SDS011;5580;50.106;8.702;2023-02-28T05:47:34;10.87;;;5.43;;
11054;SDS011;5580;50.106;8.702;2023-02-28T05:50:00;10.33;;;5.53;;
11054;SDS011;5580;50.106;8.702;2023-02-28T05:52:27;8.47;;;5.17;;
11054;SDS011;5580;50.106;8.702;2023-02-28T05:54:53;7.27;;;5.00;;
11054;SDS011;5580;50.106;8.702;2023-02-28T05:57:18;10.30;;;5.53;;
11054;SDS011;5580;50.106;8.702;2023-02-28T05:59:44;8.93;;;5.40;;
11054;SDS011;5580;50.106;8.702;2023-02-28T06:02:13;8.80;;;5.40;;
11054;SDS011;5580;50.106;8.702;2023-02-28T06:04:40;9.40;;;5.20;;
11054;SDS011;5580;50.106;8.702;2023-02-28T06:07:06;7.47;;;4.90;;
11054;SDS011;5580;50.106;8.702;2023-02-28T06:09:32;10.53;;;5.37;;
11054;SDS011;5580;50.106;8.702;2023-02-28T06:11:59;7.77;;;5.00;;
11054;SDS011;5580;50.106;8.702;2023-02-28T06:14:25;7.67;;;5.00;;
11054;SDS011;5580;50.106;8.702;2023-02-28T06:16:51;8.50;;;5.47;;
11054;SDS011;5580;50.106;8.702;2023-02-28T06:19:17;8.73;;;5.30;;
11054;SDS011;5580;50.106;8.702;2023-02-28T06:21:42;9.20;;;5.40;;
11054;SDS011;5580;50.106;8.702;2023-02-28T06:24:08;8.17;;;5.30;;
11054;SDS011;5580;50.106;8.702;2023-02-28T06:26:34;10.27;;;5.40;;
11054;SDS011;5580;50.106;8.702;2023-02-28T06:29:00;8.77;;;5.17;;
11054;SDS011;5580;50.106;8.702;2023-02-28T06:31:26;10.30;;;5.53;;
11054;SDS011;5580;50.106;8.702;2023-02-28T06:33:53;8.53;;;5.10;;
11054;SDS011;5580;50.106;8.702;2023-02-28T06:36:20;8.90;;;5.37;;
11054;SDS011;5580;50.106;8.702;2023-02-28T06:38:45;7.87;;;5.30;;
11054;SDS011;5580;50.106;8.702;2023-02-28T06:41:16;8.27;;;5.20;;
11054;SDS011;5580;50.106;8.702;2023-02-28T06:43:42;9.53;;;5.30;;
11054;SDS011;5580;50.106;8.702;2023-02-28T06:46:10;9.97;;;5.40;;
11054;SDS011;5580;50.106;8.702;2023-02-28T06:48:38;11.90;;;5.10;;
11054;SDS011;5580;50.106;8.702;2023-02-28T06:51:05;10.97;;;5.37;;
11054;SDS011;5580;50.106;8.702;2023-02-28T06:53:35;11.33;;;5.80;;
11054;SDS011;5580;50.106;8.702;2023-02-28T06:56:06;10.57;;;6.00;;
11054;SDS011;5580;50.106;8.702;2023-02-28T06:58:32;12.50;;;5.90;;
11054;SDS011;5580;50.106;8.702;2023-02-28T07:00:58;9.07;;;5.77;;
11054;SDS011;5580;50.106;8.702;2023-02-28T07:03:24;9.10;;;5.93;;
11054;SDS011;5580;50.106;8.702;2023-02-28T07:05:49;10.00;;;5.90;;
11054;SDS011;5580;50.106;8.702;2023-02-28T07:08:15;8.90;;;5.43;;
11054;SDS011;5580;50.106;8.702;2023-02-28T07:10:41;10.03;;;5.63;;
11054;SDS011;5580;50.106;8.702;2023-02-28T07:13:07;11.67;;;6.27;;
11054;SDS011;5580;50.106;8.702;2023-02-28T07:15:34;12.70;;;6.27;;
11054;SDS011;5580;50.106;8.702;2023-02-28T07:18:00;12.63;;;5.77;;
11054;SDS011;5580;50.106;8.702;2023-02-28T07:20:26;11.73;;;5.83;;
11054;SDS011;5580;50.106;8.702;2023-02-28T07:22:51;11.90;;;5.83;;
11054;SDS011;5580;50.106;8.702;2023-02-28T07:25:23;7.83;;;5.07;;
11054;SDS011;5580;50.106;8.702;2023-02-28T07:27:53;10.23;;;5.87;;
11054;SDS011;5580;50.106;8.702;2023-02-28T07:30:19;14.50;;;5.53;;
11054;SDS011;5580;50.106;8.702;2023-02-28T07:32:45;10.43;;;5.97;;
11054;SDS011;5580;50.106;8.702;2023-02-28T07:35:11;11.37;;;6.10;;
11054;SDS011;5580;50.106;8.702;2023-02-28T07:37:37;12.00;;;5.90;;
11054;SDS011;5580;50.106;8.702;2023-02-28T07:40:06;9.13;;;5.73;;
11054;SDS011;5580;50.106;8.702;2023-02-28T07:42:36;10.97;;;6.10;;
11054;SDS011;5580;50.106;8.702;2023-02-28T07:45:03;10.40;;;6.07;;
11054;SDS011;5580;50.106;8.702;2023-02-28T07:47:31;11.17;;;5.93;;
11054;SDS011;5580;50.106;8.702;2023-02-28T07:49:57;11.93;;;6.30;;
11054;SDS011;5580;50.106;8.702;2023-02-28T07:52:22;12.60;;;6.07;;
11054;SDS011;5580;50.106;8.702;2023-02-28T07:54:49;13.70;;;6.03;;
11054;SDS011;5580;50.106;8.702;2023-02-28T07:57:15;9.97;;;6.03;;
11054;SDS011;5580;50.106;8.702;2023-02-28T07:59:40;10.13;;;5.73;;
11054;SDS011;5580;50.106;8.702;2023-02-28T08:02:06;10.23;;;5.70;;
11054;SDS011;5580;50.106;8.702;2023-02-28T08:04:34;11.60;;;6.30;;
11054;SDS011;5580;50.106;8.702;2023-02-28T08:07:00;11.40;;;6.27;;
11054;SDS011;5580;50.106;8.702;2023-02-28T08:09:26;10.97;;;5.80;;
11054;SDS011;5580;50.106;8.702;2023-02-28T08:11:51;10.33;;;6.20;;
11054;SDS011;5580;50.106;8.702;2023-02-28T08:14:17;11.07;;;6.10;;
11054;SDS011;5580;50.106;8.702;2023-02-28T08:16:42;10.37;;;5.67;;
11054;SDS011;5580;50.106;8.702;2023-02-28T08:19:08;10.67;;;5.93;;
11054;SDS011;5580;50.106;8.702;2023-02-28T08:21:34;11.60;;;6.20;;
11054;SDS011;5580;50.106;8.702;2023-02-28T08:24:00;13.43;;;6.13;;
11054;SDS011;5580;50.106;8.702;2023-02-28T08:26:25;12.47;;;5.77;;
11054;SDS011;5580;50.106;8.702;2023-02-28T08:28:51;17.33;;;6.53;;
11054;SDS011;5580;50.106;8.702;2023-02-28T08:31:17;12.77;;;6.60;;
11054;SDS011;5580;50.106;8.702;2023-02-28T08:33:43;13.87;;;6.83;;
11054;SDS011;5580;50.106;8.702;2023-02-28T08:36:10;11.53;;;5.70;;
11054;SDS011;5580;50.106;8.702;2023-02-28T08:38:36;9.53;;;5.37;;
11054;SDS011;5580;50.106;8.702;2023-02-28T08:41:04;11.73;;;6.27;;
11054;SDS011;5580;50.106;8.702;2023-02-28T08:43:32;15.90;;;6.43;;
11054;SDS011;5580;50.106;8.702;2023-02-28T08:45:59;18.27;;;6.03;;
11054;SDS011;5580;50.106;8.702;2023-02-28T08:48:25;12.33;;;6.13;;
11054;SDS011;5580;50.106;8.702;2023-02-28T08:50:59;14.90;;;6.60;;
11054;SDS011;5580;50.106;8.702;2023-02-28T08:53:29;16.03;;;6.27;;
11054;SDS011;5580;50.106;8.702;2023-02-28T08:56:03;10.40;;;5.73;;
11054;SDS011;5580;50.106;8.702;2023-02-28T08:58:33;12.37;;;5.93;;
11054;SDS011;5580;50.106;8.702;2023-02-28T09:00:59;12.43;;;6.40;;
11054;SDS011;5580;50.106;8.702;2023-02-28T09:03:25;11.17;;;5.97;;
11054;SDS011;5580;50.106;8.702;2023-02-28T09:08:21;12.30;;;6.20;;
11054;SDS011;5580;50.106;8.702;2023-02-28T09:10:47;13.23;;;6.00;;
11054;SDS011;5580;50.106;8.702;2023-02-28T09:13:13;11.73;;;5.97;;
11054;SDS011;5580;50.106;8.702;2023-02-28T09:15:39;9.83;;;5.80;;
11054;SDS011;5580;50.106;8.702;2023-02-28T09:18:04;12.77;;;5.83;;
11054;SDS011;5580;50.106;8.702;2023-02-28T09:20:30;9.20;;;5.77;;
11054;SDS011;5580;50.106;8.702;2023-02-28T09:22:56;9.57;;;5.70;;
11054;SDS011;5580;50.106;8.702;2023-02-28T09:25:21;10.23;;;5.83;;
11054;SDS011;5580;50.106;8.702;2023-02-28T09:27:47;13.60;;;5.70;;
11054;SDS011;5580;50.106;8.702;2023-02-28T09:30:13;13.07;;;6.30;;
11054;SDS011;5580;50.106;8.702;2023-02-28T09:32:39;19.47;;;6.37;;
11054;SDS011;5580;50.106;8.702;2023-02-28T09:35:05;9.47;;;5.83;;
11054;SDS011;5580;50.106;8.702;2023-02-28T09:37:31;14.23;;;6.53;;
11054;SDS011;5580;50.106;8.702;2023-02-28T09:39:57;17.73;;;6.37;;
11054;SDS011;5580;50.106;8.702;2023-02-28T09:42:30;11.80;;;5.87;;
11054;SDS011;5580;50.106;8.702;2023-02-28T09:44:58;13.23;;;6.10;;
11054;SDS011;5580;50.106;8.702;2023-02-28T09:47:29;12.77;;;6.37;;
11054;SDS011;5580;50.106;8.702;2023-02-28T09:50:04;13.03;;;5.83;;
11054;SDS011;5580;50.106;8.702;2023-02-28T09:52:50;14.43;;;5.60;;
11054;SDS011;5580;50.106;8.702;2023-02-28T09:57:58;10.73;;;6.17;;
11054;SDS011;5580;50.106;8.702;2023-02-28T10:00:30;9.50;;;5.47;;
11054;SDS011;5580;50.106;8.702;2023-02-28T10:06:10;11.07;;;6.17;;
11054;SDS011;5580;50.106;8.702;2023-02-28T10:08:48;13.93;;;6.03;;
11054;SDS011;5580;50.106;8.702;2023-02-28T10:11:32;11.37;;;6.10;;
11054;SDS011;5580;50.106;8.702;2023-02-28T10:14:02;16.07;;;6.87;;
11054;SDS011;5580;50.106;8.702;2023-02-28T10:19:34;16.30;;;6.73;;
11054;SDS011;5580;50.106;8.702;2023-02-28T10:22:19;13.40;;;6.30;;
11054;SDS011;5580;50.106;8.702;2023-02-28T10:24:55;12.20;;;6.50;;
11054;SDS011;5580;50.106;8.702;2023-02-28T10:27:26;12.87;;;6.50;;
11054;SDS011;5580;50.106;8.702;2023-02-28T10:29:59;11.50;;;6.43;;
11054;SDS011;5580;50.106;8.702;2023-02-28T10:35:06;11.27;;;6.70;;
11054;SDS011;5580;50.106;8.702;2023-02-28T10:37:53;12.03;;;6.60;;
11054;SDS011;5580;50.106;8.702;2023-02-28T10:42:56;14.93;;;7.00;;
11054;SDS011;5580;50.106;8.702;2023-02-28T10:45:23;12.63;;;6.47;;
11054;SDS011;5580;50.106;8.702;2023-02-28T10:47:54;14.13;;;6.40;;
11054;SDS011;5580;50.106;8.702;2023-02-28T10:55:56;11.60;;;6.20;;
11054;SDS011;5580;50.106;8.702;2023-02-28T10:58:25;14.80;;;6.67;;
11054;SDS011;5580;50.106;8.702;2023-02-28T11:00:52;14.87;;;6.40;;
11054;SDS011;5580;50.106;8.702;2023-02-28T11:03:25;11.23;;;6.03;;
11054;SDS011;5580;50.106;8.702;2023-02-28T11:05:58;8.77;;;5.83;;
11054;SDS011;5580;50.106;8.702;2023-02-28T11:08:29;16.33;;;6.40;;
11054;SDS011;5580;50.106;8.702;2023-02-28T11:10:56;14.23;;;6.30;;
11054;SDS011;5580;50.106;8.702;2023-02-28T11:13:34;14.13;;;6.70;;
11054;SDS011;5580;50.106;8.702;2023-02-28T11:16:06;10.27;;;6.03;;
11054;SDS011;5580;50.106;8.702;2023-02-28T11:18:50;9.10;;;5.60;;
11054;SDS011;5580;50.106;8.702;2023-02-28T11:21:20;15.53;;;6.40;;
11054;SDS011;5580;50.106;8.702;2023-02-28T11:23:50;13.90;;;6.70;;
11054;SDS011;5580;50.106;8.702;2023-02-28T11:26:36;10.37;;;6.60;;
11054;SDS011;5580;50.106;8.702;2023-02-28T11:29:26;11.63;;;6.47;;
11054;SDS011;5580;50.106;8.702;2023-02-28T11:34:30;11.80;;;6.90;;
11054;SDS011;5580;50.106;8.702;2023-02-28T11:36:57;11.70;;;6.17;;
11054;SDS011;5580;50.106;8.702;2023-02-28T11:39:24;11.67;;;6.47;;
11054;SDS011;5580;50.106;8.702;2023-02-28T11:42:04;15.47;;;7.20;;
11054;SDS011;5580;50.106;8.702;2023-02-28T11:47:09;16.30;;;7.50;;
11054;SDS011;5580;50.106;8.702;2023-02-28T11:49:56;15.47;;;7.43;;
11054;SDS011;5580;50.106;8.702;2023-02-28T11:55:17;12.47;;;7.03;;
11054;SDS011;5580;50.106;8.702;2023-02-28T12:05:58;12.27;;;7.47;;
11054;SDS011;5580;50.106;8.702;2023-02-28T12:08:40;16.17;;;7.57;;
11054;SDS011;5580;50.106;8.702;2023-02-28T12:20:17;14.37;;;7.80;;
11054;SDS011;5580;50.106;8.702;2023-02-28T12:28:17;13.70;;;7.20;;
11054;SDS011;5580;50.106;8.702;2023-02-28T12:33:38;13.13;;;7.57;;
11054;SDS011;5580;50.106;8.702;2023-02-28T12:36:13;16.33;;;7.40;;
11054;SDS011;5580;50.106;8.702;2023-02-28T12:38:54;12.70;;;7.70;;
11054;SDS011;5580;50.106;8.702;2023-02-28T12:47:20;12.40;;;8.13;;
11054;SDS011;5580;50.106;8.702;2023-02-28T12:49:50;13.67;;;7.97;;
11054;SDS011;5580;50.106;8.702;2023-02-28T12:52:41;14.60;;;7.80;;
11054;SDS011;5580;50.106;8.702;2023-02-28T12:55:13;12.90;;;8.13;;
11054;SDS011;5580;50.106;8.702;2023-02-28T12:58:06;14.73;;;8.33;;
11054;SDS011;5580;50.106;8.702;2023-02-28T13:00:38;18.33;;;8.13;;
11054;SDS011;5580;50.106;8.702;2023-02-28T13:03:21;12.40;;;7.90;;
11054;SDS011;5580;50.106;8.702;2023-02-28T13:11:14;13.03;;;8.43;;
11054;SDS011;5580;50.106;8.702;2023-02-28T13:14:00;14.40;;;8.20;;
11054;SDS011;5580;50.106;8.702;2023-02-28T13:16:28;16.33;;;8.27;;
11054;SDS011;5580;50.106;8.702;2023-02-28T13:19:15;12.60;;;8.03;;
11054;SDS011;5580;50.106;8.702;2023-02-28T13:21:43;13.90;;;7.60;;
11054;SDS011;5580;50.106;8.702;2023-02-28T13:24:10;12.63;;;7.63;;
11054;SDS011;5580;50.106;8.702;2023-02-28T13:34:34;12.33;;;7.73;;
11054;SDS011;5580;50.106;8.702;2023-02-28T13:42:31;12.77;;;7.80;;
11054;SDS011;5580;50.106;8.702;2023-02-28T13:47:40;12.83;;;8.30;;
11054;SDS011;5580;50.106;8.702;2023-02-28T13:50:27;14.03;;;8.90;;
11054;SDS011;5580;50.106;8.702;2023-02-28T13:55:46;13.87;;;7.83;;
11054;SDS011;5580;50.106;8.702;2023-02-28T14:07:24;12.70;;;8.27;;
11054;SDS011;5580;50.106;8.702;2023-02-28T14:09:57;14.73;;;8.30;;
11054;SDS011;5580;50.106;8.702;2023-02-28T14:12:53;15.17;;;8.37;;
11054;SDS011;5580;50.106;8.702;2023-02-28T14:17:54;14.83;;;7.73;;
11054;SDS011;5580;50.106;8.702;2023-02-28T14:20:21;13.57;;;8.37;;
11054;SDS011;5580;50.106;8.702;2023-02-28T14:25:37;13.27;;;7.83;;
11054;SDS011;5580;50.106;8.702;2023-02-28T14:36:24;16.20;;;8.50;;
11054;SDS011;5580;50.106;8.702;2023-02-28T14:39:05;12.33;;;7.77;;
11054;SDS011;5580;50.106;8.702;2023-02-28T14:41:42;13.27;;;8.83;;
11054;SDS011;5580;50.106;8.702;2023-02-28T14:46:44;14.90;;;8.77;;
11054;SDS011;5580;50.106;8.702;2023-02-28T14:49:30;18.07;;;9.17;;
11054;SDS011;5580;50.106;8.702;2023-02-28T14:54:27;14.60;;;8.60;;
11054;SDS011;5580;50.106;8.702;2023-02-28T14:56:54;13.47;;;8.47;;
11054;SDS011;5580;50.106;8.702;2023-02-28T14:59:37;14.50;;;8.73;;
11054;SDS011;5580;50.106;8.702;2023-02-28T15:02:20;14.70;;;8.30;;
11054;SDS011;5580;50.106;8.702;2023-02-28T15:04:57;13.97;;;8.20;;
11054;SDS011;5580;50.106;8.702;2023-02-28T15:07:25;13.23;;;8.30;;
11054;SDS011;5580;50.106;8.702;2023-02-28T15:13:02;13.87;;;8.03;;
11054;SDS011;5580;50.106;8.702;2023-02-28T15:18:07;14.30;;;8.83;;
11054;SDS011;5580;50.106;8.702;2023-02-28T15:20:39;13.13;;;8.00;;
11054;SDS011;5580;50.106;8.702;2023-02-28T15:23:09;13.10;;;8.00;;
11054;SDS011;5580;50.106;8.702;2023-02-28T15:25:35;13.63;;;8.23;;
11054;SDS011;5580;50.106;8.702;2023-02-28T15:28:01;13.33;;;8.40;;
11054;SDS011;5580;50.106;8.702;2023-02-28T15:30:28;13.97;;;8.30;;
11054;SDS011;5580;50.106;8.702;2023-02-28T15:35:36;13.10;;;8.00;;
11054;SDS011;5580;50.106;8.702;2023-02-28T15:40:54;13.00;;;8.03;;
11054;SDS011;5580;50.106;8.702;2023-02-28T15:43:25;13.80;;;8.90;;
11054;SDS011;5580;50.106;8.702;2023-02-28T15:45:55;13.93;;;8.50;;
11054;SDS011;5580;50.106;8.702;2023-02-28T15:51:22;13.57;;;8.43;;
11054;SDS011;5580;50.106;8.702;2023-02-28T15:56:29;13.60;;;8.47;;
11054;SDS011;5580;50.106;8.702;2023-02-28T15:58:58;13.73;;;8.23;;
11054;SDS011;5580;50.106;8.702;2023-02-28T16:01:39;12.37;;;8.03;;
11054;SDS011;5580;50.106;8.702;2023-02-28T16:04:26;12.63;;;7.90;;
11054;SDS011;5580;50.106;8.702;2023-02-28T16:09:22;14.33;;;8.10;;
11054;SDS011;5580;50.106;8.702;2023-02-28T16:11:49;14.07;;;8.17;;
11054;SDS011;5580;50.106;8.702;2023-02-28T16:14:21;14.50;;;8.60;;
11054;SDS011;5580;50.106;8.702;2023-02-28T16:16:49;12.93;;;8.03;;
11054;SDS011;5580;50.106;8.702;2023-02-28T16:19:20;13.50;;;8.60;;
11054;SDS011;5580;50.106;8.702;2023-02-28T16:21:46;14.17;;;8.10;;
11054;SDS011;5580;50.106;8.702;2023-02-28T16:24:13;13.73;;;8.00;;
11054;SDS011;5580;50.106;8.702;2023-02-28T16:26:39;13.10;;;7.70;;
11054;SDS011;5580;50.106;8.702;2023-02-28T16:29:06;14.90;;;8.13;;
11054;SDS011;5580;50.106;8.702;2023-02-28T16:31:35;14.50;;;7.90;;
11054;SDS011;5580;50.106;8.702;2023-02-28T16:34:02;13.57;;;7.77;;
11054;SDS011;5580;50.106;8.702;2023-02-28T16:36:29;14.33;;;8.60;;
11054;SDS011;5580;50.106;8.702;2023-02-28T16:38:55;16.73;;;8.80;;
11054;SDS011;5580;50.106;8.702;2023-02-28T16:41:22;13.87;;;8.27;;
11054;SDS011;5580;50.106;8.702;2023-02-28T16:43:52;14.57;;;8.47;;
11054;SDS011;5580;50.106;8.702;2023-02-28T16:46:23;13.70;;;8.23;;
11054;SDS011;5580;50.106;8.702;2023-02-28T16:48:50;14.53;;;8.87;;
11054;SDS011;5580;50.106;8.702;2023-02-28T16:51:16;15.93;;;8.87;;
11054;SDS011;5580;50.106;8.702;2023-02-28T16:53:42;13.33;;;8.23;;
11054;SDS011;5580;50.106;8.702;2023-02-28T16:56:16;17.03;;;8.57;;
11054;SDS011;5580;50.106;8.702;2023-02-28T16:58:47;15.07;;;8.67;;
11054;SDS011;5580;50.106;8.702;2023-02-28T17:01:14;12.33;;;8.03;;
11054;SDS011;5580;50.106;8.702;2023-02-28T17:03:40;13.83;;;8.17;;
11054;SDS011;5580;50.106;8.702;2023-02-28T17:06:06;14.43;;;8.43;;
11054;SDS011;5580;50.106;8.702;2023-02-28T17:08:41;14.77;;;8.40;;
11054;SDS011;5580;50.106;8.702;2023-02-28T17:11:08;14.20;;;8.57;;
11054;SDS011;5580;50.106;8.702;2023-02-28T17:13:34;14.37;;;8.80;;
11054;SDS011;5580;50.106;8.702;2023-02-28T17:15:59;16.53;;;8.53;;
11054;SDS011;5580;50.106;8.702;2023-02-28T17:18:25;13.60;;;8.47;;
11054;SDS011;5580;50.106;8.702;2023-02-28T17:20:53;12.90;;;8.27;;
11054;SDS011;5580;50.106;8.702;2023-02-28T17:23:19;16.00;;;9.07;;
11054;SDS011;5580;50.106;8.702;2023-02-28T17:25:44;13.00;;;8.33;;
11054;SDS011;5580;50.106;8.702;2023-02-28T17:28:18;15.63;;;9.10;;
11054;SDS011;5580;50.106;8.702;2023-02-28T17:30:44;14.87;;;8.80;;
11054;SDS011;5580;50.106;8.702;2023-02-28T17:33:12;16.17;;;8.63;;
11054;SDS011;5580;50.106;8.702;2023-02-28T17:35:38;15.67;;;8.57;;
11054;SDS011;5580;50.106;8.702;2023-02-28T17:38:03;14.80;;;8.73;;
11054;SDS011;5580;50.106;8.702;2023-02-28T17:40:29;16.13;;;8.70;;
11054;SDS011;5580;50.106;8.702;2023-02-28T17:42:54;15.30;;;8.77;;
11054;SDS011;5580;50.106;8.702;2023-02-28T17:45:21;15.10;;;9.07;;
11054;SDS011;5580;50.106;8.702;2023-02-28T17:47:48;14.80;;;8.73;;
11054;SDS011;5580;50.106;8.702;2023-02-28T17:50:18;15.33;;;8.50;;